createdAt,value
2019-02-28T00:02:00.940Z,1.72
2019-02-28T00:07:36.139Z,1.53
2019-02-28T00:10:44.504Z,1.40
2019-02-28T00:13:12.995Z,1.34
2019-02-28T00:15:41.518Z,1.23
2019-02-28T00:18:09.974Z,1.03
2019-02-28T00:20:57.912Z,1.08
2019-02-28T00:23:45.804Z,1.07
2019-02-28T00:28:48.290Z,1.08
2019-02-28T00:33:50.482Z,0.96
2019-02-28T00:36:19.752Z,0.95
2019-02-28T00:38:49.171Z,0.98
2019-02-28T00:41:17.633Z,0.85
2019-02-28T00:43:46.418Z,0.98
2019-02-28T00:46:14.948Z,0.90
2019-02-28T00:48:43.470Z,0.92
2019-02-28T00:51:11.918Z,0.80
2019-02-28T00:53:40.406Z,0.74
2019-02-28T00:56:28.175Z,0.80
2019-02-28T01:06:41.789Z,0.68
2019-02-28T01:14:37.476Z,0.55
2019-02-28T01:17:26.743Z,0.58
2019-02-28T01:25:28.338Z,0.41
2019-02-28T01:27:56.791Z,0.37
2019-02-28T01:33:24.620Z,0.66
2019-02-28T01:35:49.343Z,0.57
2019-02-28T01:38:17.801Z,0.40
2019-02-28T01:40:46.271Z,0.34
2019-02-28T01:43:14.738Z,0.27
2019-02-28T01:45:44.299Z,0.25
2019-02-28T01:48:32.719Z,0.23
2019-02-28T01:51:01.737Z,0.12
2019-02-28T01:53:31.350Z,0.01
2019-02-28T01:56:19.018Z,0.15
2019-02-28T01:58:50.342Z,0.14
2019-02-28T02:01:18.285Z,0.07
2019-02-28T02:03:46.817Z,0.12
2019-02-28T02:06:15.291Z,0.02
2019-02-28T02:08:43.752Z,0.05
2019-02-28T02:11:31.476Z,-0.04
2019-02-28T02:13:59.922Z,-0.05
2019-02-28T02:16:28.405Z,-0.08
2019-02-28T02:18:56.919Z,-0.02
2019-02-28T02:24:33.672Z,-0.03
2019-02-28T02:27:02.494Z,0.09
2019-02-28T02:29:50.305Z,-0.08
2019-02-28T02:32:18.770Z,-0.07
2019-02-28T02:34:47.224Z,-0.01
2019-02-28T02:39:50.180Z,-0.18
2019-02-28T02:42:19.492Z,-0.09
2019-02-28T02:44:48.276Z,-0.17
2019-02-28T02:47:16.743Z,-0.08
2019-02-28T02:49:45.215Z,-0.15
2019-02-28T02:52:13.672Z,-0.26
2019-02-28T02:54:42.244Z,-0.07
2019-02-28T02:57:13.892Z,-0.11
2019-02-28T02:59:40.921Z,-0.31
2019-02-28T03:02:09.377Z,-0.15
2019-02-28T03:04:37.895Z,-0.25
2019-02-28T03:07:06.391Z,-0.07
2019-02-28T03:09:34.879Z,0.06
2019-02-28T03:12:22.484Z,0.13
2019-02-28T03:14:50.944Z,-0.06
2019-02-28T03:17:19.727Z,-0.08
2019-02-28T03:19:48.214Z,-0.14
2019-02-28T03:22:16.671Z,-0.07
2019-02-28T03:24:50.739Z,-0.13
2019-02-28T03:27:34.541Z,-0.12
2019-02-28T03:30:28.854Z,-0.08
2019-02-28T03:35:39.724Z,-0.26
2019-02-28T03:38:16.323Z,-0.31
2019-02-28T03:40:44.787Z,-0.38
2019-02-28T03:43:32.631Z,-0.25
2019-02-28T03:48:48.560Z,-0.34
2019-02-28T03:51:17.124Z,-0.33
2019-02-28T03:54:04.951Z,-0.37
2019-02-28T03:56:33.407Z,-0.34
2019-02-28T03:59:21.096Z,-0.36
2019-02-28T04:02:08.752Z,-0.39
2019-02-28T04:04:37.312Z,-0.34
2019-02-28T04:07:52.800Z,-0.47
2019-02-28T04:10:56.086Z,-0.30
2019-02-28T04:13:24.537Z,-0.26
2019-02-28T04:16:07.428Z,-0.38
2019-02-28T04:18:23.616Z,-0.54
2019-02-28T04:21:12.201Z,-0.45
2019-02-28T04:23:42.194Z,-0.37
2019-02-28T04:26:10.683Z,-0.47
2019-02-28T04:28:39.137Z,-0.59
2019-02-28T04:33:41.627Z,-0.52
2019-02-28T04:36:35.443Z,-0.52
2019-02-28T04:38:59.561Z,-0.50
2019-02-28T04:41:32.504Z,-0.69
2019-02-28T04:43:58.274Z,-0.61
2019-02-28T04:46:28.284Z,-0.57
2019-02-28T04:48:56.899Z,-0.63
2019-02-28T04:51:25.387Z,-0.35
2019-02-28T04:53:53.883Z,-0.50
2019-02-28T04:56:22.290Z,-0.63
2019-02-28T04:58:51.143Z,-0.57
2019-02-28T05:01:19.599Z,-0.44
2019-02-28T05:03:48.051Z,-0.64
2019-02-28T05:06:18.257Z,-0.68
2019-02-28T05:09:05.987Z,-0.55
2019-02-28T05:14:27.793Z,-0.32
2019-02-28T05:19:32.338Z,-0.43
2019-02-28T05:22:00.876Z,-0.44
2019-02-28T05:24:29.331Z,-0.58
2019-02-28T05:27:00.126Z,-0.67
2019-02-28T05:29:27.999Z,-0.63
2019-02-28T05:31:58.168Z,-0.70
2019-02-28T05:37:20.509Z,-0.76
2019-02-28T05:40:08.311Z,-0.81
2019-02-28T05:42:36.793Z,-0.78
2019-02-28T05:45:48.567Z,-0.80
2019-02-28T05:48:15.837Z,-0.78
2019-02-28T05:50:44.283Z,-0.67
2019-02-28T05:53:13.113Z,-0.61
2019-02-28T05:55:41.602Z,-0.76
2019-02-28T05:58:10.046Z,-0.71
2019-02-28T06:00:38.642Z,-0.84
2019-02-28T06:03:29.541Z,-0.96
2019-02-28T06:05:56.770Z,-0.96
2019-02-28T06:08:25.244Z,-0.97
2019-02-28T06:11:14.651Z,-0.88
2019-02-28T06:14:02.286Z,-1.01
2019-02-28T06:16:50.237Z,-0.99
2019-02-28T06:19:40.244Z,-0.79
2019-02-28T06:22:08.067Z,-0.78
2019-02-28T06:24:55.684Z,-0.64
2019-02-28T06:27:24.354Z,-0.53
2019-02-28T06:29:54.355Z,-0.31
2019-02-28T06:32:23.750Z,-0.38
2019-02-28T06:34:53.027Z,-0.67
2019-02-28T06:37:23.973Z,-0.42
2019-02-28T06:39:52.004Z,-0.45
2019-02-28T06:43:00.756Z,-0.37
2019-02-28T06:45:48.533Z,-0.49
2019-02-28T06:51:10.595Z,-0.47
2019-02-28T06:56:16.350Z,-0.17
2019-02-28T06:58:44.733Z,0.10
2019-02-28T07:01:13.191Z,0.08
2019-02-28T07:03:42.539Z,0.24
2019-02-28T07:06:11.857Z,0.22
2019-02-28T07:09:02.524Z,0.23
2019-02-28T07:11:29.789Z,0.32
2019-02-28T07:13:58.248Z,0.38
2019-02-28T07:16:26.735Z,0.46
2019-02-28T07:18:55.187Z,0.76
2019-02-28T07:21:23.652Z,0.97
2019-02-28T07:23:53.304Z,0.97
2019-02-28T07:26:22.400Z,1.18
2019-02-28T07:28:50.914Z,1.21
2019-02-28T07:31:21.759Z,1.38
2019-02-28T07:33:51.342Z,1.57
2019-02-28T07:36:20.478Z,1.78
2019-02-28T07:41:26.354Z,1.93
2019-02-28T07:44:12.911Z,2.13
2019-02-28T07:47:00.716Z,2.29
2019-02-28T07:52:03.701Z,2.78
2019-02-28T07:57:25.098Z,3.17
2019-02-28T08:02:27.720Z,3.43
2019-02-28T08:04:56.214Z,3.64
2019-02-28T08:07:24.699Z,3.85
2019-02-28T08:09:53.156Z,4.04
2019-02-28T08:12:21.627Z,4.13
2019-02-28T08:14:50.082Z,4.18
2019-02-28T08:17:19.413Z,4.25
2019-02-28T08:20:07.781Z,4.59
2019-02-28T08:22:56.666Z,4.85
2019-02-28T08:25:26.019Z,5.01
2019-02-28T08:27:59.071Z,5.29
2019-02-28T08:31:04.564Z,5.47
2019-02-28T08:33:52.207Z,5.64
2019-02-28T08:36:20.989Z,5.89
2019-02-28T08:42:02.788Z,6.33
2019-02-28T08:44:28.085Z,6.59
2019-02-28T08:46:56.612Z,6.78
2019-02-28T08:49:25.082Z,7.35
2019-02-28T08:52:12.765Z,7.33
2019-02-28T08:55:03.049Z,7.48
2019-02-28T08:57:30.724Z,7.73
2019-02-28T08:59:59.163Z,8.13
2019-02-28T09:02:27.633Z,8.13
2019-02-28T09:04:56.499Z,8.28
2019-02-28T09:07:24.937Z,8.55
2019-02-28T09:09:53.685Z,8.85
2019-02-28T09:12:22.097Z,8.88
2019-02-28T09:14:51.925Z,8.97
2019-02-28T09:17:40.406Z,9.15
2019-02-28T09:20:48.841Z,9.30
2019-02-28T09:23:37.663Z,9.40
2019-02-28T09:26:06.990Z,9.67
2019-02-28T09:28:35.527Z,9.63
2019-02-28T09:31:23.257Z,9.77
2019-02-28T09:33:51.984Z,9.86
2019-02-28T09:36:21.504Z,10.11
2019-02-28T09:38:56.868Z,10.20
2019-02-28T09:41:21.114Z,10.45
2019-02-28T09:43:49.551Z,10.85
2019-02-28T09:48:52.522Z,11.15
2019-02-28T09:51:21.092Z,11.35
2019-02-28T09:53:50.308Z,11.46
2019-02-28T09:56:41.102Z,11.71
2019-02-28T10:01:43.743Z,12.05
2019-02-28T10:04:12.217Z,12.23
2019-02-28T10:06:40.963Z,12.26
2019-02-28T10:09:09.776Z,12.40
2019-02-28T10:11:40.420Z,12.65
2019-02-28T10:14:28.824Z,12.89
2019-02-28T10:16:58.019Z,12.95
2019-02-28T10:19:26.482Z,12.87
2019-02-28T10:21:55.307Z,13.13
2019-02-28T10:24:43.208Z,13.39
2019-02-28T10:27:11.649Z,13.44
2019-02-28T10:29:41.821Z,13.54
2019-02-28T10:32:10.267Z,13.67
2019-02-28T10:34:38.726Z,13.63
2019-02-28T10:37:07.469Z,13.61
2019-02-28T10:39:35.956Z,13.66
2019-02-28T10:42:23.710Z,13.75
2019-02-28T10:44:52.482Z,13.81
2019-02-28T10:47:20.910Z,13.81
2019-02-28T10:49:49.423Z,13.98
2019-02-28T10:55:11.548Z,14.01
2019-02-28T10:57:59.275Z,14.02
2019-02-28T11:01:08.722Z,14.15
2019-02-28T11:03:57.775Z,14.22
2019-02-28T11:12:48.551Z,14.62
2019-02-28T11:15:56.941Z,14.66
2019-02-28T11:18:44.730Z,14.78
2019-02-28T11:24:23.694Z,14.78
2019-02-28T11:26:51.830Z,14.94
2019-02-28T11:29:20.271Z,15.04
2019-02-28T11:32:29.403Z,15.23
2019-02-28T11:34:59.371Z,15.48
2019-02-28T11:41:02.738Z,15.87
2019-02-28T11:49:34.681Z,16.12
2019-02-28T11:54:50.658Z,16.15
2019-02-28T11:57:20.603Z,16.30
2019-02-28T12:02:29.358Z,16.44
2019-02-28T12:04:57.894Z,16.55
2019-02-28T12:07:26.332Z,16.63
2019-02-28T12:09:55.683Z,16.66
2019-02-28T12:12:44.672Z,16.76
2019-02-28T12:15:55.333Z,16.81
2019-02-28T12:18:26.071Z,16.95
2019-02-28T12:20:54.090Z,16.91
2019-02-28T12:26:01.919Z,17.14
2019-02-28T12:28:30.505Z,16.91
2019-02-28T12:31:18.364Z,16.75
2019-02-28T12:34:28.905Z,16.98
2019-02-28T12:36:56.990Z,17.16
2019-02-28T12:39:25.436Z,17.25
2019-02-28T12:42:13.388Z,17.13
2019-02-28T12:44:42.162Z,17.33
2019-02-28T12:49:58.157Z,17.41
2019-02-28T12:55:54.335Z,17.67
2019-02-28T12:58:22.785Z,17.70
2019-02-28T13:01:10.442Z,17.53
2019-02-28T13:04:00.592Z,17.70
2019-02-28T13:06:47.682Z,17.73
2019-02-28T13:09:35.513Z,17.79
2019-02-28T13:14:58.630Z,17.71
2019-02-28T13:17:28.294Z,17.84
2019-02-28T13:20:37.442Z,17.87
2019-02-28T13:23:25.212Z,17.83
2019-02-28T13:25:58.836Z,17.91
2019-02-28T13:28:23.890Z,18.08
2019-02-28T13:30:52.742Z,18.06
2019-02-28T13:35:55.006Z,18.12
2019-02-28T13:38:23.794Z,18.22
2019-02-28T13:40:59.633Z,18.17
2019-02-28T13:43:47.275Z,18.06
2019-02-28T13:46:15.798Z,18.11
2019-02-28T13:49:03.684Z,18.19
2019-02-28T13:51:51.427Z,18.12
2019-02-28T13:54:19.961Z,18.12
2019-02-28T13:56:48.471Z,17.98
2019-02-28T13:59:17.008Z,18.05
2019-02-28T14:01:45.471Z,17.98
2019-02-28T14:04:14.005Z,17.89
2019-02-28T14:06:42.455Z,18.06
2019-02-28T14:12:24.705Z,17.92
2019-02-28T14:14:53.168Z,17.81
2019-02-28T14:17:41.250Z,17.86
2019-02-28T14:20:49.624Z,17.81
2019-02-28T14:23:20.653Z,17.64
2019-02-28T14:25:48.682Z,17.56
2019-02-28T14:28:36.454Z,17.66
2019-02-28T14:31:24.180Z,17.60
2019-02-28T14:33:54.489Z,17.53
2019-02-28T14:36:45.092Z,17.53
2019-02-28T14:39:52.512Z,17.57
2019-02-28T14:42:20.943Z,17.54
2019-02-28T14:44:49.379Z,17.49
2019-02-28T14:47:17.947Z,17.45
2019-02-28T14:49:47.303Z,17.38
2019-02-28T14:52:15.738Z,17.45
2019-02-28T14:54:44.198Z,17.41
2019-02-28T15:00:21.203Z,17.37
2019-02-28T15:03:29.554Z,17.32
2019-02-28T15:05:58.014Z,17.34
2019-02-28T15:08:27.192Z,17.18
2019-02-28T15:11:36.894Z,17.33
2019-02-28T15:14:05.631Z,17.07
2019-02-28T15:16:35.643Z,16.96
2019-02-28T15:19:24.369Z,17.05
2019-02-28T15:21:53.883Z,16.99
2019-02-28T15:24:43.771Z,16.97
2019-02-28T15:27:11.753Z,16.87
2019-02-28T15:29:40.191Z,16.69
2019-02-28T15:32:08.664Z,16.63
2019-02-28T15:34:37.471Z,16.58
2019-02-28T15:37:26.742Z,16.50
2019-02-28T15:39:55.271Z,16.24
2019-02-28T15:42:23.775Z,16.33
2019-02-28T15:45:11.430Z,16.19
2019-02-28T15:58:50.999Z,15.53
2019-02-28T16:01:19.504Z,15.15
2019-02-28T16:03:48.321Z,14.98
2019-02-28T16:06:37.526Z,14.90
2019-02-28T16:09:45.956Z,14.64
2019-02-28T16:12:15.260Z,14.48
2019-02-28T16:15:05.599Z,14.51
2019-02-28T16:17:54.141Z,14.02
2019-02-28T16:20:41.771Z,13.87
2019-02-28T16:23:31.060Z,13.74
2019-02-28T16:25:59.962Z,13.55
2019-02-28T16:28:28.398Z,13.45
2019-02-28T16:30:56.954Z,13.30
2019-02-28T16:33:25.569Z,13.22
2019-02-28T16:35:54.033Z,13.10
2019-02-28T16:38:42.491Z,12.99
2019-02-28T16:41:12.193Z,13.08
2019-02-28T16:46:30.114Z,13.10
2019-02-28T16:48:58.242Z,12.84
2019-02-28T16:51:29.420Z,12.85
2019-02-28T16:53:57.482Z,12.85
2019-02-28T16:56:25.913Z,12.78
2019-02-28T16:58:57.290Z,12.98
2019-02-28T17:04:00.387Z,13.08
2019-02-28T17:09:22.094Z,13.04
2019-02-28T17:14:29.661Z,12.96
2019-02-28T17:17:17.478Z,12.97
2019-02-28T17:19:46.885Z,12.87
2019-02-28T17:22:15.316Z,12.72
2019-02-28T17:24:46.123Z,12.76
2019-02-28T17:27:33.455Z,12.73
2019-02-28T17:32:51.069Z,12.59
2019-02-28T17:35:38.821Z,12.59
2019-02-28T17:38:07.273Z,12.49
2019-02-28T17:40:55.015Z,12.60
2019-02-28T17:43:24.435Z,12.36
2019-02-28T17:45:53.653Z,12.16
2019-02-28T17:49:01.774Z,12.14
2019-02-28T17:52:10.122Z,12.26
2019-02-28T17:55:18.584Z,11.98
2019-02-28T17:58:27.449Z,12.10
2019-02-28T18:01:35.699Z,11.96
2019-02-28T18:04:44.103Z,11.89
2019-02-28T18:07:51.449Z,11.77
2019-02-28T18:11:00.105Z,11.85
2019-02-28T18:14:08.732Z,11.84
2019-02-28T18:17:15.765Z,11.65
2019-02-28T18:20:25.911Z,11.72
2019-02-28T18:23:31.917Z,11.61
2019-02-28T18:26:39.537Z,11.77
2019-02-28T18:29:46.792Z,11.79
2019-02-28T18:32:15.359Z,11.80
2019-02-28T18:35:03.190Z,11.70
2019-02-28T18:40:45.972Z,12.02
2019-02-28T18:43:14.446Z,12.00
2019-02-28T18:45:42.886Z,11.83
2019-02-28T18:51:18.309Z,11.86
2019-02-28T18:53:46.844Z,11.58
2019-02-28T18:59:09.106Z,11.37
2019-02-28T19:04:50.811Z,11.43
2019-02-28T19:07:38.735Z,11.40
2019-02-28T19:10:47.220Z,11.44
2019-02-28T19:13:35.338Z,11.40
2019-02-28T19:19:31.413Z,11.31
2019-02-28T19:22:20.009Z,11.35
2019-02-28T19:28:02.176Z,11.18
2019-02-28T19:30:51.259Z,11.17
2019-02-28T19:33:39.070Z,11.10
2019-02-28T19:36:27.305Z,11.11
2019-02-28T19:39:15.007Z,11.36
2019-02-28T19:42:03.246Z,11.36
2019-02-28T19:44:31.716Z,11.39
2019-02-28T19:47:00.202Z,11.28
2019-02-28T19:49:28.707Z,11.38
2019-02-28T19:51:57.252Z,11.09
2019-02-28T19:54:45.057Z,11.11
2019-02-28T19:57:32.646Z,11.25
2019-02-28T20:00:20.490Z,11.23
2019-02-28T20:03:08.293Z,11.26
2019-02-28T20:06:16.719Z,11.21
2019-02-28T20:09:25.110Z,11.14
2019-02-28T20:12:13.903Z,11.35
2019-02-28T20:15:01.652Z,11.34
2019-02-28T20:18:10.385Z,11.34
2019-02-28T20:20:58.304Z,11.46
2019-02-28T20:26:20.731Z,11.41
2019-02-28T20:29:08.580Z,11.44
2019-02-28T20:32:16.986Z,11.33
2019-02-28T20:35:05.832Z,11.36
2019-02-28T20:37:53.947Z,11.11
2019-02-28T20:40:42.075Z,10.86
2019-02-28T20:43:29.873Z,11.15
2019-02-28T20:46:17.776Z,11.29
2019-02-28T20:48:46.326Z,11.11
2019-02-28T20:51:14.987Z,10.86
2019-02-28T20:56:56.422Z,10.84
2019-02-28T20:59:44.662Z,11.10
2019-02-28T21:02:32.914Z,11.24
2019-02-28T21:05:03.205Z,10.92
2019-02-28T21:07:32.025Z,10.80
2019-02-28T21:10:00.623Z,10.82
2019-02-28T21:15:24.594Z,10.69
2019-02-28T21:17:52.641Z,10.84
2019-02-28T21:20:21.100Z,10.69
2019-02-28T21:23:08.768Z,10.83
2019-02-28T21:25:57.337Z,10.58
2019-02-28T21:31:01.368Z,10.89
2019-02-28T21:33:49.606Z,10.67
2019-02-28T21:36:37.227Z,10.79
2019-02-28T21:39:45.862Z,10.85
2019-02-28T21:42:14.313Z,10.77
2019-02-28T21:47:56.567Z,10.77
2019-02-28T21:50:44.281Z,10.73
2019-02-28T21:56:06.079Z,10.84
2019-02-28T21:58:34.628Z,11.01
2019-02-28T22:01:03.155Z,10.78
2019-02-28T22:03:31.585Z,10.64
2019-02-28T22:06:00.051Z,10.77
2019-02-28T22:08:47.799Z,10.80
2019-02-28T22:11:16.257Z,10.48
2019-02-28T22:13:45.053Z,10.74
2019-02-28T22:16:13.484Z,10.59
2019-02-28T22:18:42.243Z,10.56
2019-02-28T22:21:10.674Z,10.53
2019-02-28T22:23:39.462Z,10.84
2019-02-28T22:26:08.027Z,10.74
2019-02-28T22:28:36.453Z,10.62
2019-02-28T22:39:20.129Z,10.82
2019-02-28T22:41:48.558Z,10.69
2019-02-28T22:44:17.077Z,10.63
2019-02-28T22:46:45.543Z,10.89
2019-02-28T22:49:13.977Z,10.63
2019-02-28T22:51:42.406Z,10.46
2019-02-28T22:54:10.876Z,10.45
2019-02-28T22:56:39.298Z,10.46
2019-02-28T22:59:07.726Z,10.39
2019-02-28T23:02:16.112Z,10.49
2019-02-28T23:04:44.544Z,10.66
2019-02-28T23:07:12.976Z,10.67
2019-02-28T23:09:41.446Z,10.47
2019-02-28T23:12:10.133Z,10.35
2019-02-28T23:14:57.958Z,10.29
2019-02-28T23:17:26.384Z,10.24
2019-02-28T23:20:14.166Z,10.27
2019-02-28T23:22:42.717Z,10.23
2019-02-28T23:25:30.491Z,10.20
2019-02-28T23:28:37.516Z,10.22
2019-02-28T23:31:44.581Z,10.15
2019-02-28T23:34:53.016Z,10.44
2019-02-28T23:40:15.263Z,10.09
2019-02-28T23:42:43.724Z,10.05
2019-02-28T23:45:31.770Z,10.10
2019-02-28T23:48:00.236Z,10.26
2019-02-28T23:50:29.520Z,10.16
2019-02-28T23:52:57.949Z,10.07
2019-02-28T23:55:26.410Z,10.08
2019-02-28T23:57:54.843Z,10.06
